sensor_id;sensor_type;location;lat;lon;timestamp;P1;durP1;ratioP1;P2;durP2;ratioP2
69754;SDS011;57023;52.218;5.158;2023-08-06T00:00:03;21.27;;;11.93;;
69754;SDS011;57023;52.218;5.158;2023-08-06T00:02:29;19.63;;;11.50;;
69754;SDS011;57023;52.218;5.158;2023-08-06T00:04:55;17.35;;;11.88;;
69754;SDS011;57023;52.218;5.158;2023-08-06T00:07:20;19.73;;;11.88;;
69754;SDS011;57023;52.218;5.158;2023-08-06T00:09:45;21.60;;;11.63;;
69754;SDS011;57023;52.218;5.158;2023-08-06T00:12:11;20.67;;;11.65;;
69754;SDS011;57023;52.218;5.158;2023-08-06T00:14:36;20.13;;;12.00;;
69754;SDS011;57023;52.218;5.158;2023-08-06T00:17:04;18.58;;;11.55;;
69754;SDS011;57023;52.218;5.158;2023-08-06T00:19:30;20.33;;;12.20;;
69754;SDS011;57023;52.218;5.158;2023-08-06T00:21:56;18.23;;;11.80;;
69754;SDS011;57023;52.218;5.158;2023-08-06T00:24:21;20.25;;;12.40;;
69754;SDS011;57023;52.218;5.158;2023-08-06T00:26:47;20.48;;;12.43;;
69754;SDS011;57023;52.218;5.158;2023-08-06T00:29:12;20.08;;;12.90;;
69754;SDS011;57023;52.218;5.158;2023-08-06T00:31:37;20.08;;;13.15;;
69754;SDS011;57023;52.218;5.158;2023-08-06T00:34:03;21.98;;;13.95;;
69754;SDS011;57023;52.218;5.158;2023-08-06T00:36:28;21.08;;;13.73;;
69754;SDS011;57023;52.218;5.158;2023-08-06T00:38:53;23.00;;;13.77;;
69754;SDS011;57023;52.218;5.158;2023-08-06T00:41:20;26.15;;;14.20;;
69754;SDS011;57023;52.218;5.158;2023-08-06T00:43:46;18.88;;;12.95;;
69754;SDS011;57023;52.218;5.158;2023-08-06T00:46:11;23.17;;;14.63;;
69754;SDS011;57023;52.218;5.158;2023-08-06T00:48:36;22.42;;;14.02;;
69754;SDS011;57023;52.218;5.158;2023-08-06T00:51:02;20.63;;;14.05;;
69754;SDS011;57023;52.218;5.158;2023-08-06T00:53:27;22.35;;;14.50;;
69754;SDS011;57023;52.218;5.158;2023-08-06T00:55:53;22.45;;;13.55;;
69754;SDS011;57023;52.218;5.158;2023-08-06T00:58:18;25.95;;;14.25;;
69754;SDS011;57023;52.218;5.158;2023-08-06T01:00:44;22.67;;;14.15;;
69754;SDS011;57023;52.218;5.158;2023-08-06T01:03:09;23.45;;;14.43;;
69754;SDS011;57023;52.218;5.158;2023-08-06T01:05:35;23.65;;;14.40;;
69754;SDS011;57023;52.218;5.158;2023-08-06T01:13:33;22.70;;;13.68;;
69754;SDS011;57023;52.218;5.158;2023-08-06T01:16:11;25.02;;;13.93;;
69754;SDS011;57023;52.218;5.158;2023-08-06T01:18:48;26.20;;;15.18;;
69754;SDS011;57023;52.218;5.158;2023-08-06T01:21:14;27.05;;;13.65;;
69754;SDS011;57023;52.218;5.158;2023-08-06T01:23:41;23.02;;;14.00;;
69754;SDS011;57023;52.218;5.158;2023-08-06T01:26:10;24.02;;;13.77;;
69754;SDS011;57023;52.218;5.158;2023-08-06T01:29:19;21.70;;;12.82;;
69754;SDS011;57023;52.218;5.158;2023-08-06T01:31:58;22.88;;;12.98;;
69754;SDS011;57023;52.218;5.158;2023-08-06T01:34:25;21.10;;;12.68;;
69754;SDS011;57023;52.218;5.158;2023-08-06T01:39:16;22.42;;;12.25;;
69754;SDS011;57023;52.218;5.158;2023-08-06T01:41:42;22.80;;;12.85;;
69754;SDS011;57023;52.218;5.158;2023-08-06T01:44:07;22.02;;;13.48;;
69754;SDS011;57023;52.218;5.158;2023-08-06T01:46:32;24.05;;;12.73;;
69754;SDS011;57023;52.218;5.158;2023-08-06T01:48:57;21.40;;;12.85;;
69754;SDS011;57023;52.218;5.158;2023-08-06T01:51:23;20.35;;;12.65;;
69754;SDS011;57023;52.218;5.158;2023-08-06T01:53:48;20.85;;;13.05;;
69754;SDS011;57023;52.218;5.158;2023-08-06T01:56:14;24.77;;;13.43;;
69754;SDS011;57023;52.218;5.158;2023-08-06T01:58:39;20.70;;;13.43;;
69754;SDS011;57023;52.218;5.158;2023-08-06T02:01:04;20.20;;;12.85;;
69754;SDS011;57023;52.218;5.158;2023-08-06T02:03:30;22.02;;;12.25;;
69754;SDS011;57023;52.218;5.158;2023-08-06T02:05:55;21.08;;;13.82;;
69754;SDS011;57023;52.218;5.158;2023-08-06T02:08:21;21.33;;;13.20;;
69754;SDS011;57023;52.218;5.158;2023-08-06T02:10:46;25.02;;;13.48;;
69754;SDS011;57023;52.218;5.158;2023-08-06T02:13:11;23.42;;;14.88;;
69754;SDS011;57023;52.218;5.158;2023-08-06T02:15:43;23.95;;;13.75;;
69754;SDS011;57023;52.218;5.158;2023-08-06T02:18:09;27.73;;;14.57;;
69754;SDS011;57023;52.218;5.158;2023-08-06T02:20:34;26.83;;;14.25;;
69754;SDS011;57023;52.218;5.158;2023-08-06T02:22:59;24.70;;;14.77;;
69754;SDS011;57023;52.218;5.158;2023-08-06T02:25:25;25.75;;;15.52;;
69754;SDS011;57023;52.218;5.158;2023-08-06T02:27:50;25.75;;;14.63;;
69754;SDS011;57023;52.218;5.158;2023-08-06T02:30:18;30.73;;;15.50;;
69754;SDS011;57023;52.218;5.158;2023-08-06T02:32:46;28.30;;;15.10;;
69754;SDS011;57023;52.218;5.158;2023-08-06T02:35:12;27.15;;;16.05;;
69754;SDS011;57023;52.218;5.158;2023-08-06T02:37:37;27.95;;;14.82;;
69754;SDS011;57023;52.218;5.158;2023-08-06T02:40:03;30.02;;;15.88;;
69754;SDS011;57023;52.218;5.158;2023-08-06T02:42:28;28.98;;;15.65;;
69754;SDS011;57023;52.218;5.158;2023-08-06T02:44:54;24.05;;;15.18;;
69754;SDS011;57023;52.218;5.158;2023-08-06T02:47:22;27.52;;;16.77;;
69754;SDS011;57023;52.218;5.158;2023-08-06T02:49:47;31.27;;;17.23;;
69754;SDS011;57023;52.218;5.158;2023-08-06T02:52:13;31.25;;;16.63;;
69754;SDS011;57023;52.218;5.158;2023-08-06T02:54:38;27.30;;;16.42;;
69754;SDS011;57023;52.218;5.158;2023-08-06T02:57:04;34.08;;;17.33;;
69754;SDS011;57023;52.218;5.158;2023-08-06T02:59:30;27.65;;;15.95;;
69754;SDS011;57023;52.218;5.158;2023-08-06T03:01:56;29.80;;;16.58;;
69754;SDS011;57023;52.218;5.158;2023-08-06T03:04:21;29.70;;;16.67;;
69754;SDS011;57023;52.218;5.158;2023-08-06T03:06:48;28.17;;;17.02;;
69754;SDS011;57023;52.218;5.158;2023-08-06T03:09:14;31.13;;;17.90;;
69754;SDS011;57023;52.218;5.158;2023-08-06T03:11:39;32.20;;;17.67;;
69754;SDS011;57023;52.218;5.158;2023-08-06T03:14:05;32.08;;;17.25;;
69754;SDS011;57023;52.218;5.158;2023-08-06T03:16:30;31.15;;;18.13;;
69754;SDS011;57023;52.218;5.158;2023-08-06T03:18:56;29.27;;;16.88;;
69754;SDS011;57023;52.218;5.158;2023-08-06T03:21:21;33.85;;;17.73;;
69754;SDS011;57023;52.218;5.158;2023-08-06T03:23:47;31.75;;;17.98;;
69754;SDS011;57023;52.218;5.158;2023-08-06T03:26:16;32.92;;;17.20;;
69754;SDS011;57023;52.218;5.158;2023-08-06T03:28:42;31.80;;;17.35;;
69754;SDS011;57023;52.218;5.158;2023-08-06T03:31:10;31.48;;;17.55;;
69754;SDS011;57023;52.218;5.158;2023-08-06T03:33:35;32.58;;;17.50;;
69754;SDS011;57023;52.218;5.158;2023-08-06T03:36:01;37.47;;;17.75;;
69754;SDS011;57023;52.218;5.158;2023-08-06T03:38:26;34.10;;;17.25;;
69754;SDS011;57023;52.218;5.158;2023-08-06T03:40:52;28.08;;;16.58;;
69754;SDS011;57023;52.218;5.158;2023-08-06T03:43:18;28.60;;;15.82;;
69754;SDS011;57023;52.218;5.158;2023-08-06T03:45:43;29.33;;;15.60;;
69754;SDS011;57023;52.218;5.158;2023-08-06T03:48:08;35.15;;;16.13;;
69754;SDS011;57023;52.218;5.158;2023-08-06T03:50:34;30.55;;;15.55;;
69754;SDS011;57023;52.218;5.158;2023-08-06T03:53:00;28.77;;;15.93;;
69754;SDS011;57023;52.218;5.158;2023-08-06T03:55:25;24.52;;;14.27;;
69754;SDS011;57023;52.218;5.158;2023-08-06T03:57:50;25.48;;;15.30;;
69754;SDS011;57023;52.218;5.158;2023-08-06T04:00:16;31.45;;;15.65;;
69754;SDS011;57023;52.218;5.158;2023-08-06T04:02:41;33.65;;;15.85;;
69754;SDS011;57023;52.218;5.158;2023-08-06T04:05:07;31.70;;;15.40;;
69754;SDS011;57023;52.218;5.158;2023-08-06T04:07:32;34.67;;;16.02;;
69754;SDS011;57023;52.218;5.158;2023-08-06T04:09:59;27.30;;;14.73;;
69754;SDS011;57023;52.218;5.158;2023-08-06T04:12:26;26.17;;;14.57;;
69754;SDS011;57023;52.218;5.158;2023-08-06T04:14:51;29.85;;;14.45;;
69754;SDS011;57023;52.218;5.158;2023-08-06T04:17:17;28.77;;;14.40;;
69754;SDS011;57023;52.218;5.158;2023-08-06T04:19:50;29.67;;;14.85;;
69754;SDS011;57023;52.218;5.158;2023-08-06T04:22:16;26.20;;;14.48;;
69754;SDS011;57023;52.218;5.158;2023-08-06T04:24:42;27.77;;;13.93;;
69754;SDS011;57023;52.218;5.158;2023-08-06T04:27:11;25.13;;;14.25;;
69754;SDS011;57023;52.218;5.158;2023-08-06T04:29:37;25.80;;;14.63;;
69754;SDS011;57023;52.218;5.158;2023-08-06T04:32:06;24.52;;;13.55;;
69754;SDS011;57023;52.218;5.158;2023-08-06T04:34:33;24.52;;;13.48;;
69754;SDS011;57023;52.218;5.158;2023-08-06T04:36:59;27.40;;;13.80;;
69754;SDS011;57023;52.218;5.158;2023-08-06T04:39:24;30.00;;;13.65;;
69754;SDS011;57023;52.218;5.158;2023-08-06T04:41:50;24.35;;;13.20;;
69754;SDS011;57023;52.218;5.158;2023-08-06T04:44:15;26.13;;;13.10;;
69754;SDS011;57023;52.218;5.158;2023-08-06T04:46:43;36.22;;;14.23;;
69754;SDS011;57023;52.218;5.158;2023-08-06T04:49:08;25.50;;;13.30;;
69754;SDS011;57023;52.218;5.158;2023-08-06T04:51:34;23.00;;;12.68;;
69754;SDS011;57023;52.218;5.158;2023-08-06T04:53:59;22.92;;;13.15;;
69754;SDS011;57023;52.218;5.158;2023-08-06T04:56:25;24.85;;;12.68;;
69754;SDS011;57023;52.218;5.158;2023-08-06T04:58:50;21.13;;;12.30;;
69754;SDS011;57023;52.218;5.158;2023-08-06T05:01:16;23.35;;;12.57;;
69754;SDS011;57023;52.218;5.158;2023-08-06T05:03:41;24.73;;;12.57;;
69754;SDS011;57023;52.218;5.158;2023-08-06T05:06:06;21.52;;;11.77;;
69754;SDS011;57023;52.218;5.158;2023-08-06T05:08:32;21.83;;;11.32;;
69754;SDS011;57023;52.218;5.158;2023-08-06T05:10:57;20.55;;;11.27;;
69754;SDS011;57023;52.218;5.158;2023-08-06T05:13:23;20.17;;;11.23;;
69754;SDS011;57023;52.218;5.158;2023-08-06T05:15:53;19.40;;;10.68;;
69754;SDS011;57023;52.218;5.158;2023-08-06T05:18:18;22.88;;;10.32;;
69754;SDS011;57023;52.218;5.158;2023-08-06T05:20:47;22.50;;;10.77;;
69754;SDS011;57023;52.218;5.158;2023-08-06T05:23:12;20.65;;;10.68;;
69754;SDS011;57023;52.218;5.158;2023-08-06T05:25:44;21.73;;;10.93;;
69754;SDS011;57023;52.218;5.158;2023-08-06T05:28:09;25.42;;;11.13;;
69754;SDS011;57023;52.218;5.158;2023-08-06T05:30:38;21.20;;;10.77;;
69754;SDS011;57023;52.218;5.158;2023-08-06T05:33:04;18.38;;;10.15;;
69754;SDS011;57023;52.218;5.158;2023-08-06T05:35:29;15.52;;;9.75;;
69754;SDS011;57023;52.218;5.158;2023-08-06T05:37:54;19.65;;;9.77;;
69754;SDS011;57023;52.218;5.158;2023-08-06T05:40:20;19.00;;;8.88;;
69754;SDS011;57023;52.218;5.158;2023-08-06T05:42:45;17.50;;;8.90;;
69754;SDS011;57023;52.218;5.158;2023-08-06T05:45:10;10.25;;;6.25;;
69754;SDS011;57023;52.218;5.158;2023-08-06T05:47:36;12.73;;;6.30;;
69754;SDS011;57023;52.218;5.158;2023-08-06T05:50:01;10.07;;;5.57;;
69754;SDS011;57023;52.218;5.158;2023-08-06T05:52:26;9.95;;;6.22;;
69754;SDS011;57023;52.218;5.158;2023-08-06T05:54:52;10.10;;;6.10;;
69754;SDS011;57023;52.218;5.158;2023-08-06T05:57:20;9.98;;;5.85;;
69754;SDS011;57023;52.218;5.158;2023-08-06T05:59:45;9.50;;;6.00;;
69754;SDS011;57023;52.218;5.158;2023-08-06T06:02:10;8.77;;;5.57;;
69754;SDS011;57023;52.218;5.158;2023-08-06T06:04:36;8.15;;;5.40;;
69754;SDS011;57023;52.218;5.158;2023-08-06T06:07:05;8.00;;;4.80;;
69754;SDS011;57023;52.218;5.158;2023-08-06T06:09:30;8.43;;;4.93;;
69754;SDS011;57023;52.218;5.158;2023-08-06T06:11:55;7.88;;;4.72;;
69754;SDS011;57023;52.218;5.158;2023-08-06T06:14:30;6.70;;;4.28;;
69754;SDS011;57023;52.218;5.158;2023-08-06T06:16:55;6.65;;;4.05;;
69754;SDS011;57023;52.218;5.158;2023-08-06T06:19:23;6.22;;;4.32;;
69754;SDS011;57023;52.218;5.158;2023-08-06T06:21:52;8.18;;;4.30;;
69754;SDS011;57023;52.218;5.158;2023-08-06T06:24:18;7.35;;;4.30;;
69754;SDS011;57023;52.218;5.158;2023-08-06T06:26:43;6.25;;;3.97;;
69754;SDS011;57023;52.218;5.158;2023-08-06T06:29:08;5.95;;;4.10;;
69754;SDS011;57023;52.218;5.158;2023-08-06T06:31:35;6.30;;;4.43;;
69754;SDS011;57023;52.218;5.158;2023-08-06T06:34:00;6.10;;;4.55;;
69754;SDS011;57023;52.218;5.158;2023-08-06T06:36:26;6.25;;;4.38;;
69754;SDS011;57023;52.218;5.158;2023-08-06T06:38:51;8.30;;;4.50;;
69754;SDS011;57023;52.218;5.158;2023-08-06T06:41:16;6.40;;;4.15;;
69754;SDS011;57023;52.218;5.158;2023-08-06T06:43:42;6.60;;;4.40;;
69754;SDS011;57023;52.218;5.158;2023-08-06T06:46:07;6.47;;;4.30;;
69754;SDS011;57023;52.218;5.158;2023-08-06T06:48:33;8.50;;;4.68;;
69754;SDS011;57023;52.218;5.158;2023-08-06T06:50:58;7.43;;;4.72;;
69754;SDS011;57023;52.218;5.158;2023-08-06T06:53:24;7.00;;;4.72;;
69754;SDS011;57023;52.218;5.158;2023-08-06T06:55:53;7.55;;;4.53;;
69754;SDS011;57023;52.218;5.158;2023-08-06T06:58:19;6.90;;;4.60;;
69754;SDS011;57023;52.218;5.158;2023-08-06T07:00:45;7.88;;;5.15;;
69754;SDS011;57023;52.218;5.158;2023-08-06T07:03:11;7.43;;;4.97;;
69754;SDS011;57023;52.218;5.158;2023-08-06T07:05:36;9.90;;;5.18;;
69754;SDS011;57023;52.218;5.158;2023-08-06T07:08:01;7.28;;;5.18;;
69754;SDS011;57023;52.218;5.158;2023-08-06T07:10:26;9.23;;;5.47;;
69754;SDS011;57023;52.218;5.158;2023-08-06T07:12:52;8.35;;;5.28;;
69754;SDS011;57023;52.218;5.158;2023-08-06T07:15:17;8.38;;;5.00;;
69754;SDS011;57023;52.218;5.158;2023-08-06T07:17:43;8.95;;;5.43;;
69754;SDS011;57023;52.218;5.158;2023-08-06T07:20:11;8.88;;;6.00;;
69754;SDS011;57023;52.218;5.158;2023-08-06T07:22:36;11.80;;;6.45;;
69754;SDS011;57023;52.218;5.158;2023-08-06T07:25:02;9.13;;;6.28;;
69754;SDS011;57023;52.218;5.158;2023-08-06T07:27:27;9.40;;;6.72;;
69754;SDS011;57023;52.218;5.158;2023-08-06T07:29:52;10.52;;;6.72;;
69754;SDS011;57023;52.218;5.158;2023-08-06T07:32:18;14.15;;;6.60;;
69754;SDS011;57023;52.218;5.158;2023-08-06T07:34:43;11.40;;;5.95;;
69754;SDS011;57023;52.218;5.158;2023-08-06T07:37:08;8.07;;;5.43;;
69754;SDS011;57023;52.218;5.158;2023-08-06T07:39:34;8.82;;;5.40;;
69754;SDS011;57023;52.218;5.158;2023-08-06T07:41:59;10.50;;;5.00;;
69754;SDS011;57023;52.218;5.158;2023-08-06T07:44:27;9.50;;;4.90;;
69754;SDS011;57023;52.218;5.158;2023-08-06T07:46:52;8.88;;;4.70;;
69754;SDS011;57023;52.218;5.158;2023-08-06T07:49:18;6.63;;;4.10;;
69754;SDS011;57023;52.218;5.158;2023-08-06T07:51:43;6.22;;;4.30;;
69754;SDS011;57023;52.218;5.158;2023-08-06T07:54:09;7.10;;;4.68;;
69754;SDS011;57023;52.218;5.158;2023-08-06T07:56:34;7.60;;;4.80;;
69754;SDS011;57023;52.218;5.158;2023-08-06T08:01:26;6.95;;;4.32;;
69754;SDS011;57023;52.218;5.158;2023-08-06T08:03:52;7.13;;;4.38;;
69754;SDS011;57023;52.218;5.158;2023-08-06T08:06:17;6.60;;;4.60;;
69754;SDS011;57023;52.218;5.158;2023-08-06T08:08:42;6.32;;;4.60;;
69754;SDS011;57023;52.218;5.158;2023-08-06T08:11:08;8.55;;;4.68;;
69754;SDS011;57023;52.218;5.158;2023-08-06T08:13:34;7.90;;;5.03;;
69754;SDS011;57023;52.218;5.158;2023-08-06T08:15:59;7.13;;;5.05;;
69754;SDS011;57023;52.218;5.158;2023-08-06T08:18:26;13.38;;;5.45;;
69754;SDS011;57023;52.218;5.158;2023-08-06T08:20:52;9.88;;;5.28;;
69754;SDS011;57023;52.218;5.158;2023-08-06T08:23:17;8.10;;;5.20;;
69754;SDS011;57023;52.218;5.158;2023-08-06T08:25:43;7.35;;;4.95;;
69754;SDS011;57023;52.218;5.158;2023-08-06T08:28:08;8.57;;;5.20;;
69754;SDS011;57023;52.218;5.158;2023-08-06T08:30:36;11.63;;;6.05;;
69754;SDS011;57023;52.218;5.158;2023-08-06T08:33:02;9.95;;;6.00;;
69754;SDS011;57023;52.218;5.158;2023-08-06T08:35:27;8.80;;;5.88;;
69754;SDS011;57023;52.218;5.158;2023-08-06T08:37:52;8.45;;;5.78;;
69754;SDS011;57023;52.218;5.158;2023-08-06T08:40:18;12.20;;;5.72;;
69754;SDS011;57023;52.218;5.158;2023-08-06T08:42:43;11.43;;;6.30;;
69754;SDS011;57023;52.218;5.158;2023-08-06T08:45:12;9.55;;;6.32;;
69754;SDS011;57023;52.218;5.158;2023-08-06T08:47:40;11.85;;;6.43;;
69754;SDS011;57023;52.218;5.158;2023-08-06T08:50:09;13.25;;;6.30;;
69754;SDS011;57023;52.218;5.158;2023-08-06T08:52:40;13.68;;;7.00;;
69754;SDS011;57023;52.218;5.158;2023-08-06T08:55:06;9.45;;;6.38;;
69754;SDS011;57023;52.218;5.158;2023-08-06T08:57:32;10.57;;;6.70;;
69754;SDS011;57023;52.218;5.158;2023-08-06T08:59:57;10.02;;;7.13;;
69754;SDS011;57023;52.218;5.158;2023-08-06T09:02:23;10.25;;;6.40;;
69754;SDS011;57023;52.218;5.158;2023-08-06T09:07:17;9.83;;;6.47;;
69754;SDS011;57023;52.218;5.158;2023-08-06T09:09:46;9.23;;;5.78;;
69754;SDS011;57023;52.218;5.158;2023-08-06T09:12:14;12.82;;;6.47;;
69754;SDS011;57023;52.218;5.158;2023-08-06T09:14:40;9.13;;;6.45;;
69754;SDS011;57023;52.218;5.158;2023-08-06T09:17:06;9.77;;;5.63;;
69754;SDS011;57023;52.218;5.158;2023-08-06T09:19:31;8.02;;;5.90;;
69754;SDS011;57023;52.218;5.158;2023-08-06T09:21:57;9.13;;;5.57;;
69754;SDS011;57023;52.218;5.158;2023-08-06T09:24:22;9.90;;;5.70;;
69754;SDS011;57023;52.218;5.158;2023-08-06T09:26:48;8.75;;;6.15;;
69754;SDS011;57023;52.218;5.158;2023-08-06T09:29:13;10.52;;;5.70;;
69754;SDS011;57023;52.218;5.158;2023-08-06T09:34:15;8.68;;;6.03;;
69754;SDS011;57023;52.218;5.158;2023-08-06T09:36:51;9.23;;;6.28;;
69754;SDS011;57023;52.218;5.158;2023-08-06T09:39:18;10.85;;;5.90;;
69754;SDS011;57023;52.218;5.158;2023-08-06T09:41:45;10.20;;;6.27;;
69754;SDS011;57023;52.218;5.158;2023-08-06T09:44:19;11.00;;;6.25;;
69754;SDS011;57023;52.218;5.158;2023-08-06T09:46:51;11.18;;;5.97;;
69754;SDS011;57023;52.218;5.158;2023-08-06T09:51:43;11.63;;;5.77;;
69754;SDS011;57023;52.218;5.158;2023-08-06T09:54:10;10.85;;;7.07;;
69754;SDS011;57023;52.218;5.158;2023-08-06T09:56:37;10.85;;;5.60;;
69754;SDS011;57023;52.218;5.158;2023-08-06T09:59:05;11.40;;;6.05;;
69754;SDS011;57023;52.218;5.158;2023-08-06T10:01:35;10.85;;;6.25;;
69754;SDS011;57023;52.218;5.158;2023-08-06T10:04:04;10.00;;;5.70;;
69754;SDS011;57023;52.218;5.158;2023-08-06T10:06:32;8.38;;;4.88;;
69754;SDS011;57023;52.218;5.158;2023-08-06T10:09:01;9.30;;;5.18;;
69754;SDS011;57023;52.218;5.158;2023-08-06T10:11:26;9.95;;;4.90;;
69754;SDS011;57023;52.218;5.158;2023-08-06T10:16:38;10.82;;;5.18;;
69754;SDS011;57023;52.218;5.158;2023-08-06T10:19:04;13.07;;;4.70;;
69754;SDS011;57023;52.218;5.158;2023-08-06T10:21:33;9.43;;;4.65;;
69754;SDS011;57023;52.218;5.158;2023-08-06T10:23:58;11.00;;;4.78;;
69754;SDS011;57023;52.218;5.158;2023-08-06T10:26:30;7.43;;;4.40;;
69754;SDS011;57023;52.218;5.158;2023-08-06T10:28:55;9.35;;;4.40;;
69754;SDS011;57023;52.218;5.158;2023-08-06T10:34:18;8.45;;;4.70;;
69754;SDS011;57023;52.218;5.158;2023-08-06T10:36:44;9.90;;;4.75;;
69754;SDS011;57023;52.218;5.158;2023-08-06T10:39:11;8.55;;;4.50;;
69754;SDS011;57023;52.218;5.158;2023-08-06T10:41:38;10.82;;;4.40;;
69754;SDS011;57023;52.218;5.158;2023-08-06T10:44:07;9.57;;;4.00;;
69754;SDS011;57023;52.218;5.158;2023-08-06T10:46:36;8.57;;;3.88;;
69754;SDS011;57023;52.218;5.158;2023-08-06T10:49:02;9.32;;;4.00;;
69754;SDS011;57023;52.218;5.158;2023-08-06T10:51:28;7.90;;;3.90;;
69754;SDS011;57023;52.218;5.158;2023-08-06T10:53:54;8.27;;;4.05;;
69754;SDS011;57023;52.218;5.158;2023-08-06T10:56:20;8.68;;;4.10;;
69754;SDS011;57023;52.218;5.158;2023-08-06T10:58:50;7.85;;;3.58;;
69754;SDS011;57023;52.218;5.158;2023-08-06T11:01:16;8.53;;;3.90;;
69754;SDS011;57023;52.218;5.158;2023-08-06T11:03:42;7.72;;;3.80;;
69754;SDS011;57023;52.218;5.158;2023-08-06T11:06:16;6.57;;;3.90;;
69754;SDS011;57023;52.218;5.158;2023-08-06T11:08:47;7.90;;;3.70;;
69754;SDS011;57023;52.218;5.158;2023-08-06T11:11:16;5.80;;;3.38;;
69754;SDS011;57023;52.218;5.158;2023-08-06T11:13:46;6.72;;;3.42;;
69754;SDS011;57023;52.218;5.158;2023-08-06T11:18:41;7.15;;;3.30;;
69754;SDS011;57023;52.218;5.158;2023-08-06T11:21:10;5.80;;;3.08;;
69754;SDS011;57023;52.218;5.158;2023-08-06T11:23:36;5.88;;;3.17;;
69754;SDS011;57023;52.218;5.158;2023-08-06T11:26:02;6.63;;;2.95;;
69754;SDS011;57023;52.218;5.158;2023-08-06T11:28:28;8.52;;;3.22;;
69754;SDS011;57023;52.218;5.158;2023-08-06T11:30:53;5.90;;;2.88;;
69754;SDS011;57023;52.218;5.158;2023-08-06T11:33:29;8.30;;;3.20;;
69754;SDS011;57023;52.218;5.158;2023-08-06T11:35:55;8.30;;;4.75;;
69754;SDS011;57023;52.218;5.158;2023-08-06T11:38:22;8.07;;;3.60;;
69754;SDS011;57023;52.218;5.158;2023-08-06T11:40:50;7.57;;;3.10;;
69754;SDS011;57023;52.218;5.158;2023-08-06T11:43:15;7.38;;;3.15;;
69754;SDS011;57023;52.218;5.158;2023-08-06T11:45:43;9.23;;;3.53;;
69754;SDS011;57023;52.218;5.158;2023-08-06T11:48:08;5.72;;;2.90;;
69754;SDS011;57023;52.218;5.158;2023-08-06T11:50:36;5.57;;;2.83;;
69754;SDS011;57023;52.218;5.158;2023-08-06T11:53:03;7.35;;;3.05;;
69754;SDS011;57023;52.218;5.158;2023-08-06T11:55:28;5.65;;;2.92;;
69754;SDS011;57023;52.218;5.158;2023-08-06T11:57:57;5.93;;;3.00;;
69754;SDS011;57023;52.218;5.158;2023-08-06T12:00:24;5.82;;;2.88;;
69754;SDS011;57023;52.218;5.158;2023-08-06T12:02:51;7.55;;;2.78;;
69754;SDS011;57023;52.218;5.158;2023-08-06T12:05:24;6.35;;;3.28;;
69754;SDS011;57023;52.218;5.158;2023-08-06T12:07:57;5.50;;;2.90;;
69754;SDS011;57023;52.218;5.158;2023-08-06T12:10:24;8.18;;;3.20;;
69754;SDS011;57023;52.218;5.158;2023-08-06T12:12:51;7.20;;;3.08;;
69754;SDS011;57023;52.218;5.158;2023-08-06T12:15:16;5.38;;;2.75;;
69754;SDS011;57023;52.218;5.158;2023-08-06T12:17:42;6.43;;;2.88;;
69754;SDS011;57023;52.218;5.158;2023-08-06T12:20:10;7.35;;;3.20;;
69754;SDS011;57023;52.218;5.158;2023-08-06T12:22:36;5.97;;;3.28;;
69754;SDS011;57023;52.218;5.158;2023-08-06T12:25:05;4.93;;;2.65;;
69754;SDS011;57023;52.218;5.158;2023-08-06T12:27:37;6.82;;;3.17;;
69754;SDS011;57023;52.218;5.158;2023-08-06T12:30:03;4.65;;;3.10;;
69754;SDS011;57023;52.218;5.158;2023-08-06T12:32:30;8.48;;;3.05;;
69754;SDS011;57023;52.218;5.158;2023-08-06T12:34:55;5.70;;;2.90;;
69754;SDS011;57023;52.218;5.158;2023-08-06T12:37:20;6.25;;;3.05;;
69754;SDS011;57023;52.218;5.158;2023-08-06T12:39:49;6.28;;;3.30;;
69754;SDS011;57023;52.218;5.158;2023-08-06T12:42:14;6.05;;;3.35;;
69754;SDS011;57023;52.218;5.158;2023-08-06T12:44:39;7.53;;;3.22;;
69754;SDS011;57023;52.218;5.158;2023-08-06T12:47:05;7.03;;;3.50;;
69754;SDS011;57023;52.218;5.158;2023-08-06T12:49:33;7.55;;;3.63;;
69754;SDS011;57023;52.218;5.158;2023-08-06T12:51:58;6.93;;;3.70;;
69754;SDS011;57023;52.218;5.158;2023-08-06T12:54:24;6.17;;;3.43;;
69754;SDS011;57023;52.218;5.158;2023-08-06T12:56:50;6.78;;;3.40;;
69754;SDS011;57023;52.218;5.158;2023-08-06T12:59:16;6.32;;;3.40;;
69754;SDS011;57023;52.218;5.158;2023-08-06T13:01:42;5.20;;;3.23;;
69754;SDS011;57023;52.218;5.158;2023-08-06T13:04:08;7.50;;;3.40;;
69754;SDS011;57023;52.218;5.158;2023-08-06T13:06:34;7.03;;;3.50;;
69754;SDS011;57023;52.218;5.158;2023-08-06T13:11:30;6.38;;;3.45;;
69754;SDS011;57023;52.218;5.158;2023-08-06T13:14:09;10.68;;;3.70;;
69754;SDS011;57023;52.218;5.158;2023-08-06T13:16:36;6.40;;;3.40;;
69754;SDS011;57023;52.218;5.158;2023-08-06T13:19:05;6.40;;;3.80;;
69754;SDS011;57023;52.218;5.158;2023-08-06T13:21:34;7.47;;;4.28;;
69754;SDS011;57023;52.218;5.158;2023-08-06T13:24:01;6.38;;;3.88;;
69754;SDS011;57023;52.218;5.158;2023-08-06T13:26:29;6.95;;;3.67;;
69754;SDS011;57023;52.218;5.158;2023-08-06T13:28:56;8.38;;;3.83;;
69754;SDS011;57023;52.218;5.158;2023-08-06T13:33:48;6.53;;;3.77;;
69754;SDS011;57023;52.218;5.158;2023-08-06T13:36:14;7.38;;;3.60;;
69754;SDS011;57023;52.218;5.158;2023-08-06T13:38:45;7.00;;;3.70;;
69754;SDS011;57023;52.218;5.158;2023-08-06T13:41:11;6.03;;;3.38;;
69754;SDS011;57023;52.218;5.158;2023-08-06T13:43:36;8.98;;;3.80;;
69754;SDS011;57023;52.218;5.158;2023-08-06T13:46:02;6.68;;;3.58;;
69754;SDS011;57023;52.218;5.158;2023-08-06T13:48:27;7.03;;;3.45;;
69754;SDS011;57023;52.218;5.158;2023-08-06T13:50:52;7.28;;;3.50;;
69754;SDS011;57023;52.218;5.158;2023-08-06T13:53:18;7.65;;;3.42;;
69754;SDS011;57023;52.218;5.158;2023-08-06T13:55:43;7.32;;;4.25;;
69754;SDS011;57023;52.218;5.158;2023-08-06T13:58:08;6.10;;;3.60;;
69754;SDS011;57023;52.218;5.158;2023-08-06T14:00:35;8.50;;;3.90;;
69754;SDS011;57023;52.218;5.158;2023-08-06T14:03:00;7.43;;;3.78;;
69754;SDS011;57023;52.218;5.158;2023-08-06T14:05:26;6.85;;;3.55;;
69754;SDS011;57023;52.218;5.158;2023-08-06T14:07:51;7.00;;;3.20;;
69754;SDS011;57023;52.218;5.158;2023-08-06T14:10:16;7.10;;;3.38;;
69754;SDS011;57023;52.218;5.158;2023-08-06T14:12:45;6.03;;;3.53;;
69754;SDS011;57023;52.218;5.158;2023-08-06T14:15:10;7.25;;;3.20;;
69754;SDS011;57023;52.218;5.158;2023-08-06T14:17:36;7.10;;;3.47;;
69754;SDS011;57023;52.218;5.158;2023-08-06T14:20:01;5.80;;;3.35;;
69754;SDS011;57023;52.218;5.158;2023-08-06T14:22:29;6.85;;;3.65;;
69754;SDS011;57023;52.218;5.158;2023-08-06T14:24:56;6.65;;;3.47;;
69754;SDS011;57023;52.218;5.158;2023-08-06T14:27:21;6.13;;;3.63;;
69754;SDS011;57023;52.218;5.158;2023-08-06T14:29:46;6.53;;;4.65;;
69754;SDS011;57023;52.218;5.158;2023-08-06T14:32:12;5.20;;;3.53;;
69754;SDS011;57023;52.218;5.158;2023-08-06T14:34:42;5.57;;;3.03;;
69754;SDS011;57023;52.218;5.158;2023-08-06T14:37:08;5.00;;;2.90;;
69754;SDS011;57023;52.218;5.158;2023-08-06T14:39:34;7.18;;;3.00;;
69754;SDS011;57023;52.218;5.158;2023-08-06T14:41:59;7.57;;;3.05;;
69754;SDS011;57023;52.218;5.158;2023-08-06T14:44:24;7.20;;;3.10;;
69754;SDS011;57023;52.218;5.158;2023-08-06T14:46:49;5.45;;;2.65;;
69754;SDS011;57023;52.218;5.158;2023-08-06T14:49:15;7.00;;;4.05;;
69754;SDS011;57023;52.218;5.158;2023-08-06T14:51:40;6.93;;;3.00;;
69754;SDS011;57023;52.218;5.158;2023-08-06T14:54:05;6.63;;;2.40;;
69754;SDS011;57023;52.218;5.158;2023-08-06T14:56:34;6.25;;;2.33;;
69754;SDS011;57023;52.218;5.158;2023-08-06T14:58:59;5.45;;;2.30;;
69754;SDS011;57023;52.218;5.158;2023-08-06T15:01:24;8.20;;;2.47;;